La Valley, Colorado
Current Conditions -  °F | °C
As of 12:29 PM on Thursday 23 Oct 2014 (Local Time) from KVTP Reporting Station
Clear Clear  
Wind Chill: 50°   Ceiling: Unl
Heat Index: 50°   Visibility: 10mi
Dew Point: 30°   Wind: 12mph
Humidity: 47%   Direction: 200°SSW
Pressure: 30.44"   Gusts: 23mph
Location:  37.1568°N, 105.289°W
Report Text: KVTP 231829Z AUTO 20010G20KT 170V240 10SM CLR 10/M01 A3044 RMK AO2
Loading
Personal Weather Stations






























Interactive Weather Map
Tropical Storm Tracking
New forecast layout! Learn more

10-Day Weather Forecast

Advertisements
Track Severe Weather on mobile